Time;durP1;ratioP1;P1;durP2;ratioP2;P2;SDS_P1;SDS_P2;PMS_P1;PMS_P2;Temp;Humidity;BMP_temperature;BMP_pressure;BME280_temperature;BME280_humidity;BME280_pressure;Samples;Min_cycle;Max_cycle;Signal;HPM_P1;HPM_P2
2023/09/29 00:02:23;;;;;;;31.98;21.05;;;11.60;99.90;;;;;;5088598;28;20673;-81
2023/09/29 00:04:49;;;;;;;23.65;16.02;;;11.50;99.90;;;;;;5092530;28;20021;-80
2023/09/29 00:07:14;;;;;;;23.33;15.52;;;11.50;99.90;;;;;;5091838;28;20023;-80
2023/09/29 00:09:40;;;;;;;24.63;17.80;;;11.40;99.90;;;;;;5092349;28;20104;-80
2023/09/29 00:12:06;;;;;;;26.42;18.88;;;11.40;99.90;;;;;;5090054;28;20112;-80
2023/09/29 00:14:31;;;;;;;25.45;18.48;;;11.40;99.90;;;;;;5092312;28;20024;-85
2023/09/29 00:16:57;;;;;;;23.05;17.45;;;11.40;99.90;;;;;;5091665;28;20028;-80
2023/09/29 00:19:23;;;;;;;26.13;17.50;;;11.40;99.90;;;;;;5098319;28;20016;-86
2023/09/29 00:21:48;;;;;;;24.63;16.70;;;11.30;99.90;;;;;;5093347;28;20043;-80
2023/09/29 00:24:14;;;;;;;21.80;16.13;;;11.30;99.90;;;;;;5091382;28;20035;-80
2023/09/29 00:26:40;;;;;;;21.35;16.27;;;11.30;99.90;;;;;;5092481;28;20474;-80
2023/09/29 00:29:06;;;;;;;25.63;16.90;;;11.30;99.90;;;;;;5092675;28;20020;-80
2023/09/29 00:31:32;;;;;;;21.60;14.73;;;11.30;99.90;;;;;;5092125;28;20025;-80
2023/09/29 00:33:58;;;;;;;22.75;15.15;;;11.30;99.90;;;;;;5091154;28;20066;-79
2023/09/29 00:36:23;;;;;;;21.27;14.20;;;11.30;99.90;;;;;;5091582;28;20111;-85
2023/09/29 00:38:49;;;;;;;21.45;14.13;;;11.30;99.90;;;;;;5092317;28;20112;-85
2023/09/29 00:41:15;;;;;;;19.60;14.18;;;11.20;99.90;;;;;;5090193;28;20501;-85
2023/09/29 00:43:40;;;;;;;17.80;13.77;;;11.20;99.90;;;;;;5091148;28;20032;-79
2023/09/29 00:46:06;;;;;;;18.58;13.75;;;11.20;99.90;;;;;;5090827;28;20017;-79
2023/09/29 00:48:33;;;;;;;20.60;15.23;;;11.10;99.90;;;;;;5090391;28;20377;-85
2023/09/29 00:50:59;;;;;;;20.55;14.70;;;11.10;99.90;;;;;;5088821;28;20013;-84
2023/09/29 00:53:25;;;;;;;20.30;13.52;;;11.00;99.90;;;;;;5072739;28;20021;-85
2023/09/29 00:55:52;;;;;;;17.45;13.70;;;11.00;99.90;;;;;;5070847;28;20017;-84
2023/09/29 00:58:18;;;;;;;22.10;14.15;;;11.00;99.90;;;;;;5070729;28;20020;-80
2023/09/29 01:00:45;;;;;;;21.48;13.60;;;11.00;99.90;;;;;;5071187;28;20115;-84
2023/09/29 01:03:13;;;;;;;21.08;13.88;;;11.00;99.90;;;;;;5082387;28;20039;-85
2023/09/29 01:05:47;;;;;;;19.10;13.85;;;10.90;99.90;;;;;;5071690;28;20390;-79
2023/09/29 01:08:17;;;;;;;20.35;13.57;;;10.90;99.90;;;;;;5072629;28;20031;-85
2023/09/29 01:10:44;;;;;;;18.45;14.15;;;10.90;99.90;;;;;;5075572;28;20064;-80
2023/09/29 01:13:09;;;;;;;17.77;13.02;;;10.90;99.90;;;;;;5081612;28;20536;-84
2023/09/29 01:15:36;;;;;;;19.98;13.93;;;10.90;99.90;;;;;;5070381;28;20025;-79
2023/09/29 01:18:02;;;;;;;19.00;13.88;;;10.90;99.90;;;;;;5072079;28;20099;-84
2023/09/29 01:20:29;;;;;;;19.88;13.52;;;10.80;99.90;;;;;;5092903;28;20020;-80
2023/09/29 01:22:56;;;;;;;19.40;12.95;;;10.80;99.90;;;;;;5094443;28;20028;-79
2023/09/29 01:25:21;;;;;;;17.65;12.88;;;10.80;99.90;;;;;;5094760;28;20022;-85
2023/09/29 01:27:48;;;;;;;20.88;13.68;;;10.80;99.90;;;;;;5082579;28;20091;-79
2023/09/29 01:30:16;;;;;;;25.90;14.65;;;10.80;99.90;;;;;;5085353;28;20482;-79
2023/09/29 01:32:43;;;;;;;19.40;12.82;;;10.80;99.90;;;;;;5091330;28;20024;-85
2023/09/29 01:35:15;;;;;;;19.45;13.32;;;10.70;99.90;;;;;;5094309;28;20012;-79
2023/09/29 01:37:42;;;;;;;20.52;14.60;;;10.70;99.90;;;;;;5095295;28;20016;-85
2023/09/29 01:40:09;;;;;;;19.00;14.13;;;10.70;99.90;;;;;;5095745;28;20069;-85
2023/09/29 01:42:35;;;;;;;19.88;13.98;;;10.70;99.90;;;;;;5093598;28;20051;-85
2023/09/29 01:45:04;;;;;;;16.67;12.30;;;10.60;99.90;;;;;;5094563;28;20103;-85
2023/09/29 01:47:30;;;;;;;21.73;12.77;;;10.60;99.90;;;;;;5089704;28;20131;-79
2023/09/29 01:49:56;;;;;;;20.30;13.02;;;10.60;99.90;;;;;;5074381;28;20024;-85
2023/09/29 01:52:22;;;;;;;16.02;12.63;;;10.60;99.90;;;;;;5080099;28;20610;-79
2023/09/29 01:54:49;;;;;;;17.88;13.38;;;10.60;99.90;;;;;;5081493;28;20100;-79
2023/09/29 01:57:15;;;;;;;20.38;12.63;;;10.60;99.90;;;;;;5075437;28;20017;-85
2023/09/29 01:59:41;;;;;;;19.63;12.90;;;10.60;99.90;;;;;;5073952;28;20099;-79
2023/09/29 02:02:06;;;;;;;18.85;13.32;;;10.50;99.90;;;;;;5079180;28;20957;-85
2023/09/29 02:04:34;;;;;;;18.80;13.30;;;10.50;99.90;;;;;;5082237;28;20444;-86
2023/09/29 02:07:00;;;;;;;20.45;13.60;;;10.50;99.90;;;;;;5073990;28;20031;-85
2023/09/29 02:09:26;;;;;;;15.35;11.13;;;10.50;99.90;;;;;;5075459;28;20107;-79
2023/09/29 02:11:54;;;;;;;17.02;11.10;;;10.40;99.90;;;;;;5080216;28;20400;-85
2023/09/29 02:14:20;;;;;;;13.40;10.50;;;10.40;99.90;;;;;;5082420;28;20051;-86
2023/09/29 02:16:48;;;;;;;15.38;10.68;;;10.30;99.90;;;;;;5087062;28;20048;-85
2023/09/29 02:19:14;;;;;;;15.82;10.38;;;10.30;99.90;;;;;;5073670;28;21045;-79
2023/09/29 02:21:40;;;;;;;15.80;10.70;;;10.20;99.90;;;;;;5086915;28;20016;-85
2023/09/29 02:24:07;;;;;;;13.48;10.50;;;10.20;99.90;;;;;;5086496;28;20097;-86
2023/09/29 02:26:34;;;;;;;17.50;10.88;;;10.20;99.90;;;;;;5080054;28;20519;-79
2023/09/29 02:29:01;;;;;;;15.95;10.60;;;10.20;99.90;;;;;;5094764;28;20039;-79
2023/09/29 02:31:26;;;;;;;16.80;11.65;;;10.10;99.90;;;;;;5093133;28;20103;-86
2023/09/29 02:33:53;;;;;;;15.75;11.25;;;10.10;99.90;;;;;;5093803;28;20545;-85
2023/09/29 02:36:19;;;;;;;17.42;12.23;;;10.10;99.90;;;;;;5093668;28;20018;-85
2023/09/29 02:38:45;;;;;;;14.32;11.07;;;10.10;99.90;;;;;;5091927;28;20050;-80
2023/09/29 02:41:11;;;;;;;18.58;11.57;;;10.10;99.90;;;;;;5093725;28;20024;-80
2023/09/29 02:43:37;;;;;;;17.65;12.15;;;10.10;99.90;;;;;;5093601;28;20043;-86
2023/09/29 02:46:03;;;;;;;15.57;11.57;;;10.10;99.90;;;;;;5086266;28;20024;-86
2023/09/29 02:48:29;;;;;;;20.08;12.27;;;10.10;99.90;;;;;;5085600;28;20035;-85
2023/09/29 02:50:55;;;;;;;16.23;12.02;;;10.10;99.90;;;;;;5085946;28;20029;-86
2023/09/29 02:53:21;;;;;;;15.93;11.95;;;10.10;99.90;;;;;;5087084;28;20469;-86
2023/09/29 02:55:47;;;;;;;16.45;11.20;;;10.10;99.90;;;;;;5084934;28;20028;-86
2023/09/29 02:58:13;;;;;;;16.35;12.35;;;10.10;99.90;;;;;;5082862;28;20054;-80
2023/09/29 03:00:41;;;;;;;15.55;12.52;;;10.00;99.90;;;;;;5079098;28;20024;-79
2023/09/29 03:03:09;;;;;;;19.35;13.05;;;10.00;99.90;;;;;;5076688;28;20058;-85
2023/09/29 03:05:35;;;;;;;15.05;11.60;;;10.00;99.90;;;;;;5086027;28;20016;-86
2023/09/29 03:08:01;;;;;;;18.95;13.82;;;10.00;99.90;;;;;;5081647;28;20021;-79
2023/09/29 03:10:30;;;;;;;16.85;13.35;;;9.90;99.90;;;;;;5080478;28;20443;-79
2023/09/29 03:12:56;;;;;;;16.58;12.75;;;9.90;99.90;;;;;;5067363;28;20023;-86
2023/09/29 03:15:23;;;;;;;15.18;12.15;;;9.90;99.90;;;;;;5072669;28;20025;-85
2023/09/29 03:17:49;;;;;;;18.65;12.85;;;9.90;99.90;;;;;;5073474;28;20021;-86
2023/09/29 03:20:16;;;;;;;15.85;12.32;;;9.80;99.90;;;;;;5075962;28;20029;-86
2023/09/29 03:22:44;;;;;;;16.10;12.27;;;9.80;99.90;;;;;;5075354;28;20486;-86
2023/09/29 03:25:10;;;;;;;16.73;12.25;;;9.80;99.90;;;;;;5077260;28;20020;-80
2023/09/29 03:27:36;;;;;;;16.30;11.30;;;9.80;99.90;;;;;;5072495;28;20190;-80
2023/09/29 03:30:07;;;;;;;17.45;12.30;;;9.70;99.90;;;;;;5076372;28;20024;-79
2023/09/29 03:32:33;;;;;;;17.15;12.07;;;9.70;99.90;;;;;;5076069;28;20030;-79
2023/09/29 03:34:59;;;;;;;16.77;11.38;;;9.80;99.90;;;;;;5078619;28;20020;-79
2023/09/29 03:37:27;;;;;;;19.55;11.80;;;9.80;99.90;;;;;;5075713;28;20524;-84
2023/09/29 03:39:53;;;;;;;15.95;10.30;;;9.70;99.90;;;;;;5072439;28;20045;-79
2023/09/29 03:42:22;;;;;;;15.95;11.68;;;9.70;99.90;;;;;;5077280;28;20035;-84
2023/09/29 03:44:48;;;;;;;15.50;10.93;;;9.70;99.90;;;;;;5077123;28;20603;-84
2023/09/29 03:47:14;;;;;;;17.92;11.55;;;9.70;99.90;;;;;;5079578;28;20029;-79
2023/09/29 03:49:42;;;;;;;13.13;11.13;;;9.70;99.90;;;;;;5071534;28;20025;-79
2023/09/29 03:52:08;;;;;;;17.92;12.25;;;9.70;99.90;;;;;;5078301;28;20025;-79
2023/09/29 03:54:34;;;;;;;16.25;10.80;;;9.70;99.90;;;;;;5078416;28;20008;-79
2023/09/29 03:57:04;;;;;;;17.15;12.80;;;9.70;99.90;;;;;;5079185;28;20017;-79
2023/09/29 03:59:30;;;;;;;18.08;11.60;;;9.70;99.90;;;;;;5080313;28;20024;-85
2023/09/29 04:01:55;;;;;;;16.55;11.00;;;9.60;99.90;;;;;;5073537;28;20096;-85
2023/09/29 04:04:21;;;;;;;15.10;11.20;;;9.60;99.90;;;;;;5073017;28;20115;-85
2023/09/29 04:06:47;;;;;;;15.50;11.63;;;9.60;99.90;;;;;;5072000;28;20017;-85
2023/09/29 04:09:12;;;;;;;18.77;12.00;;;9.60;99.90;;;;;;5072343;28;20017;-85
2023/09/29 04:11:40;;;;;;;17.10;11.23;;;9.50;99.90;;;;;;5071975;28;20020;-79
2023/09/29 04:14:06;;;;;;;16.40;12.20;;;9.50;99.90;;;;;;5072545;28;20401;-85
2023/09/29 04:16:32;;;;;;;15.82;12.25;;;9.50;99.90;;;;;;5073651;28;20408;-86
2023/09/29 04:18:57;;;;;;;17.10;11.63;;;9.50;99.90;;;;;;5077193;28;20024;-85
2023/09/29 04:21:23;;;;;;;20.13;13.13;;;9.50;99.90;;;;;;5072843;28;20028;-85
2023/09/29 04:23:48;;;;;;;15.88;11.27;;;9.50;99.90;;;;;;5072238;28;20470;-79
2023/09/29 04:26:19;;;;;;;15.43;10.65;;;9.50;99.90;;;;;;5073477;28;20076;-79
2023/09/29 04:28:50;;;;;;;16.02;11.63;;;9.50;99.90;;;;;;5070569;28;20385;-82
2023/09/29 04:31:16;;;;;;;19.77;12.20;;;9.50;99.90;;;;;;5071398;28;20146;-79
2023/09/29 04:33:43;;;;;;;16.95;10.98;;;9.50;99.90;;;;;;5084529;28;20095;-79
2023/09/29 04:36:08;;;;;;;18.00;12.30;;;9.50;99.90;;;;;;5077710;28;20050;-79
2023/09/29 04:38:36;;;;;;;19.15;12.32;;;9.50;99.90;;;;;;5080319;28;20052;-85
2023/09/29 04:41:02;;;;;;;17.27;11.65;;;9.50;99.90;;;;;;5072590;28;20020;-79
2023/09/29 04:43:28;;;;;;;14.85;11.43;;;9.50;99.90;;;;;;5071791;28;20393;-79
2023/09/29 04:45:55;;;;;;;16.10;10.70;;;9.50;99.90;;;;;;5071414;28;20021;-85
2023/09/29 04:48:21;;;;;;;15.48;11.23;;;9.50;99.90;;;;;;5076781;28;20043;-79
2023/09/29 04:50:47;;;;;;;16.27;10.73;;;9.50;99.90;;;;;;5084676;28;20545;-86
2023/09/29 04:53:12;;;;;;;18.83;10.27;;;9.50;99.90;;;;;;5072791;28;20104;-79
2023/09/29 04:55:38;;;;;;;18.60;11.10;;;9.50;99.90;;;;;;5073667;28;20023;-85
2023/09/29 04:58:04;;;;;;;16.88;11.40;;;9.50;99.90;;;;;;5075345;28;20446;-79
2023/09/29 05:00:30;;;;;;;21.17;11.27;;;9.50;99.90;;;;;;5089892;28;20017;-85
2023/09/29 05:02:55;;;;;;;19.77;11.18;;;9.50;99.90;;;;;;5076729;28;20032;-79
2023/09/29 05:05:21;;;;;;;20.75;11.35;;;9.50;99.90;;;;;;5075448;28;20016;-85
2023/09/29 05:07:47;;;;;;;18.45;12.25;;;9.50;99.90;;;;;;5075531;28;20024;-79
2023/09/29 05:10:15;;;;;;;16.77;11.93;;;9.60;99.90;;;;;;5075121;28;20041;-85
2023/09/29 05:12:43;;;;;;;15.40;10.95;;;9.60;99.90;;;;;;5074821;28;20041;-79
2023/09/29 05:15:09;;;;;;;16.00;11.73;;;9.60;99.90;;;;;;5079345;28;20123;-85
2023/09/29 05:17:35;;;;;;;17.33;11.75;;;9.70;99.90;;;;;;5076816;28;20103;-85
2023/09/29 05:20:01;;;;;;;16.23;11.35;;;9.70;99.90;;;;;;5077104;28;20450;-86
2023/09/29 05:22:27;;;;;;;16.63;11.10;;;9.70;99.90;;;;;;5076670;28;20025;-85
2023/09/29 05:24:55;;;;;;;20.25;12.07;;;9.80;99.90;;;;;;5075990;28;20097;-79
2023/09/29 05:27:21;;;;;;;15.48;10.23;;;9.80;99.90;;;;;;5076271;28;20025;-79
2023/09/29 05:29:46;;;;;;;22.75;10.38;;;9.90;99.90;;;;;;5075158;28;20501;-78
2023/09/29 05:32:12;;;;;;;15.30;10.82;;;10.00;99.90;;;;;;5074945;28;20027;-85
2023/09/29 05:34:37;;;;;;;18.25;10.32;;;10.00;99.90;;;;;;5076434;28;20043;-87
2023/09/29 05:37:04;;;;;;;18.00;9.93;;;10.10;99.90;;;;;;5076151;28;20060;-78
2023/09/29 05:39:30;;;;;;;17.05;10.43;;;10.10;99.90;;;;;;5076839;28;20066;-85
2023/09/29 05:41:56;;;;;;;14.65;9.98;;;10.20;99.90;;;;;;5075007;28;20054;-85
2023/09/29 05:44:21;;;;;;;14.55;9.45;;;10.30;99.90;;;;;;5076705;28;20036;-78
2023/09/29 05:46:47;;;;;;;13.23;8.73;;;10.40;99.90;;;;;;5074826;28;20021;-85
2023/09/29 05:49:13;;;;;;;14.88;8.25;;;10.40;99.90;;;;;;5075217;28;20025;-84
2023/09/29 05:51:39;;;;;;;14.02;10.38;;;10.60;99.90;;;;;;5077216;28;20032;-85
2023/09/29 05:54:04;;;;;;;13.75;9.95;;;10.70;99.90;;;;;;5076941;28;20033;-85
2023/09/29 05:56:33;;;;;;;15.05;8.80;;;10.90;99.90;;;;;;5075037;28;20029;-78
2023/09/29 05:58:58;;;;;;;13.25;8.07;;;11.00;99.90;;;;;;5074598;28;20025;-85
2023/09/29 06:01:27;;;;;;;15.07;8.95;;;11.20;99.90;;;;;;5074547;28;20021;-78
2023/09/29 06:03:53;;;;;;;16.85;9.60;;;11.40;99.90;;;;;;5081685;28;20577;-77
2023/09/29 06:06:19;;;;;;;14.13;9.40;;;11.60;99.90;;;;;;5093878;28;20016;-85
2023/09/29 06:08:45;;;;;;;14.32;9.52;;;11.70;99.90;;;;;;5074980;28;20035;-85
2023/09/29 06:11:11;;;;;;;17.38;9.80;;;11.90;99.90;;;;;;5088263;28;20024;-77
2023/09/29 06:13:42;;;;;;;11.52;9.52;;;12.10;99.90;;;;;;5093320;28;20016;-77
2023/09/29 06:16:08;;;;;;;15.25;9.80;;;12.30;99.90;;;;;;5092989;28;20024;-84
2023/09/29 06:18:34;;;;;;;14.73;9.23;;;12.50;99.90;;;;;;5094153;28;20040;-85
2023/09/29 06:21:00;;;;;;;19.27;10.15;;;12.70;99.90;;;;;;5081242;28;20036;-85
2023/09/29 06:23:26;;;;;;;15.77;10.40;;;12.90;99.90;;;;;;5081178;28;20028;-85
2023/09/29 06:25:58;;;;;;;13.43;10.70;;;13.10;99.90;;;;;;5079871;28;20048;-77
2023/09/29 06:28:24;;;;;;;;;;;13.30;99.90;;;;;;5083369;28;20066;-85
2023/09/29 06:30:57;;;;;;;12.82;10.50;;;13.50;99.90;;;;;;5093096;28;20358;-85
2023/09/29 06:33:24;;;;;;;14.95;9.82;;;13.70;99.90;;;;;;5094359;28;20444;-86
2023/09/29 06:35:49;;;;;;;12.70;10.63;;;13.80;99.90;;;;;;5093334;28;20068;-77
2023/09/29 06:38:15;;;;;;;17.15;10.48;;;14.10;99.90;;;;;;5093978;28;20452;-77
2023/09/29 06:40:43;;;;;;;15.27;9.25;;;14.30;99.90;;;;;;5092605;28;20035;-85
2023/09/29 06:43:09;;;;;;;20.10;10.65;;;14.50;99.90;;;;;;5092517;28;20032;-85
2023/09/29 06:45:35;;;;;;;16.85;10.05;;;14.70;99.90;;;;;;5091629;28;20097;-77
2023/09/29 06:48:00;;;;;;;21.23;10.38;;;14.90;99.90;;;;;;5092621;28;20024;-77
2023/09/29 06:50:26;;;;;;;18.58;10.85;;;15.10;99.90;;;;;;5094649;28;20059;-85
2023/09/29 06:52:52;;;;;;;17.60;10.25;;;15.40;99.90;;;;;;5081966;28;20028;-78
2023/09/29 06:55:18;;;;;;;15.85;10.35;;;15.60;99.90;;;;;;5092929;28;20027;-86
2023/09/29 06:57:43;;;;;;;17.50;10.98;;;15.90;99.90;;;;;;5092350;28;20386;-78
2023/09/29 07:00:09;;;;;;;17.15;10.27;;;16.20;99.90;;;;;;5089622;28;20016;-86
2023/09/29 07:02:36;;;;;;;16.42;9.80;;;16.40;99.90;;;;;;5083163;28;20023;-86
2023/09/29 07:05:02;;;;;;;17.35;10.35;;;16.70;99.90;;;;;;5091993;28;20111;-78
2023/09/29 07:07:28;;;;;;;16.10;10.73;;;16.90;99.90;;;;;;5094197;28;20470;-86
2023/09/29 07:09:53;;;;;;;17.92;10.23;;;17.10;99.90;;;;;;5092056;28;20031;-87
2023/09/29 07:12:19;;;;;;;18.83;8.73;;;17.40;99.90;;;;;;5092699;28;20039;-86
2023/09/29 07:14:44;;;;;;;9.95;7.93;;;17.70;99.90;;;;;;5092152;28;20073;-78
2023/09/29 07:17:11;;;;;;;10.43;7.70;;;17.80;99.90;;;;;;5093457;28;20024;-86
2023/09/29 07:19:36;;;;;;;13.80;7.20;;;18.00;99.90;;;;;;5079014;28;20058;-86
2023/09/29 07:22:02;;;;;;;8.30;6.35;;;18.30;99.90;;;;;;5092675;28;20418;-78
2023/09/29 07:24:28;;;;;;;15.10;7.30;;;18.50;99.90;;;;;;5091836;28;20028;-85
2023/09/29 07:26:53;;;;;;;12.68;7.18;;;18.70;96.60;;;;;;5092190;28;20016;-78
2023/09/29 07:29:19;;;;;;;11.55;7.47;;;18.90;92.00;;;;;;5091149;28;20041;-79
2023/09/29 07:31:48;;;;;;;9.20;6.63;;;19.00;90.60;;;;;;5092100;28;20074;-86
2023/09/29 07:34:17;;;;;;;8.48;7.35;;;19.20;85.70;;;;;;5091343;28;20043;-85
2023/09/29 07:36:44;;;;;;;10.60;7.25;;;19.30;84.80;;;;;;5082914;28;20057;-86
2023/09/29 07:39:15;;;;;;;10.30;7.65;;;19.40;81.80;;;;;;5091320;28;20043;-78
2023/09/29 07:41:41;;;;;;;10.68;6.70;;;19.60;83.10;;;;;;5092309;28;20026;-86
2023/09/29 07:44:08;;;;;;;8.40;6.95;;;19.70;79.60;;;;;;5090991;28;20177;-78
2023/09/29 07:46:37;;;;;;;13.07;7.88;;;19.90;80.10;;;;;;5092974;28;20048;-78
2023/09/29 07:49:03;;;;;;;10.57;6.38;;;19.90;78.10;;;;;;5091280;28;20043;-87
2023/09/29 07:51:29;;;;;;;9.38;7.18;;;20.00;77.30;;;;;;5092006;28;20062;-87
2023/09/29 07:53:57;;;;;;;13.82;6.32;;;20.20;78.80;;;;;;5093509;28;20158;-87
2023/09/29 07:56:22;;;;;;;10.20;6.80;;;20.20;80.80;;;;;;5091901;28;20024;-86
2023/09/29 07:58:48;;;;;;;9.68;7.00;;;20.40;83.40;;;;;;5087965;28;20394;-87
2023/09/29 08:01:14;;;;;;;12.88;8.35;;;20.50;82.70;;;;;;5072727;28;20016;-78
2023/09/29 08:03:41;;;;;;;10.32;7.07;;;20.60;79.20;;;;;;5089151;28;20430;-79
2023/09/29 08:06:08;;;;;;;10.93;7.40;;;20.70;77.70;;;;;;5091774;28;20048;-87
2023/09/29 08:08:34;;;;;;;9.57;7.35;;;20.80;76.70;;;;;;5091559;28;20469;-87
2023/09/29 08:11:00;;;;;;;11.55;6.38;;;20.90;76.90;;;;;;5092939;28;20408;-79
2023/09/29 08:13:26;;;;;;;12.52;7.28;;;21.00;75.90;;;;;;5091129;28;20024;-87
2023/09/29 08:15:52;;;;;;;12.90;6.50;;;21.00;74.20;;;;;;5091538;28;20469;-79
2023/09/29 08:18:18;;;;;;;9.93;6.93;;;21.00;73.50;;;;;;5087139;28;20017;-87
2023/09/29 08:20:44;;;;;;;9.93;7.13;;;21.00;72.00;;;;;;5074944;28;20066;-87
2023/09/29 08:23:09;;;;;;;12.32;7.70;;;21.10;73.30;;;;;;5071888;28;20116;-79
2023/09/29 08:25:35;;;;;;;12.38;7.40;;;21.20;74.40;;;;;;5076569;28;20108;-87
2023/09/29 08:28:03;;;;;;;8.80;6.80;;;21.30;74.50;;;;;;5073126;28;20016;-79
2023/09/29 08:30:29;;;;;;;12.85;7.10;;;21.40;73.20;;;;;;5071896;28;20016;-80
2023/09/29 08:32:55;;;;;;;8.13;6.70;;;21.40;72.80;;;;;;5072018;28;20114;-87
2023/09/29 08:35:21;;;;;;;13.85;7.55;;;21.50;72.90;;;;;;5084087;28;20020;-88
2023/09/29 08:37:47;;;;;;;10.63;5.97;;;21.50;71.60;;;;;;5072921;28;20119;-79
2023/09/29 08:40:18;;;;;;;11.40;6.20;;;21.60;72.10;;;;;;5071522;28;20045;-87
2023/09/29 08:42:49;;;;;;;8.70;6.70;;;21.70;71.20;;;;;;5072344;28;20040;-79
2023/09/29 08:45:17;;;;;;;12.90;7.70;;;21.80;71.90;;;;;;5075170;28;20497;-88
2023/09/29 08:47:55;;;;;;;7.50;6.13;;;21.90;72.40;;;;;;5071386;28;20035;-79
2023/09/29 08:50:24;;;;;;;9.38;6.63;;;22.00;70.40;;;;;;5076902;28;20229;-79
2023/09/29 08:52:51;;;;;;;10.25;7.05;;;22.10;68.50;;;;;;5078065;28;20023;-79
2023/09/29 08:55:18;;;;;;;11.32;7.15;;;22.20;68.90;;;;;;5075468;28;20354;-79
2023/09/29 08:57:44;;;;;;;15.60;7.65;;;22.30;69.60;;;;;;5071221;28;20025;-86
2023/09/29 09:00:14;;;;;;;14.38;7.28;;;22.40;69.00;;;;;;5071468;28;20078;-87
2023/09/29 09:02:44;;;;;;;12.50;7.32;;;22.50;68.10;;;;;;5080856;28;20077;-87
2023/09/29 09:05:10;;;;;;;11.00;6.93;;;22.60;67.00;;;;;;5090845;28;20031;-87
2023/09/29 09:07:40;;;;;;;12.55;6.80;;;22.70;66.00;;;;;;5080539;28;20029;-79
2023/09/29 09:10:06;;;;;;;8.48;6.32;;;22.80;65.20;;;;;;5085640;28;20036;-87
2023/09/29 09:12:34;;;;;;;11.68;5.90;;;22.80;65.20;;;;;;5071550;28;20402;-87
2023/09/29 09:15:00;;;;;;;10.52;6.25;;;22.90;64.70;;;;;;5084271;28;20017;-79
2023/09/29 09:17:27;;;;;;;7.07;5.85;;;22.90;62.90;;;;;;5051585;28;20025;-80
2023/09/29 09:19:52;;;;;;;10.52;6.00;;;23.10;62.20;;;;;;5071769;28;20028;-86
2023/09/29 09:22:32;;;;;;;7.97;5.78;;;23.10;62.10;;;;;;5071722;28;20410;-79
2023/09/29 09:24:58;;;;;;;8.88;6.40;;;23.20;61.60;;;;;;5072482;28;20067;-87
2023/09/29 09:27:24;;;;;;;9.95;6.32;;;23.30;63.10;;;;;;5071543;28;20043;-83
2023/09/29 09:29:50;;;;;;;10.90;6.43;;;23.30;60.30;;;;;;5079898;28;20012;-86
2023/09/29 09:32:26;;;;;;;8.85;6.03;;;23.40;59.50;;;;;;5071617;28;20462;-80
2023/09/29 09:34:52;;;;;;;11.63;6.28;;;23.40;59.30;;;;;;5071780;28;20393;-80
2023/09/29 09:37:28;;;;;;;8.75;5.70;;;23.50;59.00;;;;;;5072277;28;20511;-87
2023/09/29 09:39:59;;;;;;;7.38;5.32;;;23.50;58.90;;;;;;5071419;28;20044;-80
2023/09/29 09:42:28;;;;;;;9.18;6.20;;;23.50;58.10;;;;;;5076748;28;20531;-80
2023/09/29 09:44:57;;;;;;;6.38;5.60;;;23.40;57.30;;;;;;5075804;28;20402;-86
2023/09/29 09:47:26;;;;;;;8.82;5.63;;;23.50;56.80;;;;;;5076436;28;20104;-80
2023/09/29 09:49:56;;;;;;;9.30;5.93;;;23.60;56.20;;;;;;5076286;28;20099;-81
2023/09/29 09:52:30;;;;;;;7.82;5.18;;;23.50;56.60;;;;;;5079426;28;20129;-80
2023/09/29 09:55:02;;;;;;;9.70;6.45;;;23.60;56.30;;;;;;5082738;28;20051;-80
2023/09/29 09:57:33;;;;;;;7.53;5.70;;;23.70;57.40;;;;;;5074841;28;20013;-86
2023/09/29 10:00:10;;;;;;;13.75;6.03;;;23.70;55.90;;;;;;5075287;28;20103;-85
2023/09/29 10:02:46;;;;;;;10.73;6.38;;;23.70;55.70;;;;;;5084499;28;20089;-79
2023/09/29 10:05:22;;;;;;;6.72;5.97;;;23.70;55.80;;;;;;5094369;28;20157;-85
2023/09/29 10:07:49;;;;;;;8.50;5.25;;;23.80;55.70;;;;;;5094205;28;20024;-86
2023/09/29 10:10:31;;;;;;;9.23;6.03;;;23.80;55.00;;;;;;5088243;28;20020;-80
2023/09/29 10:12:58;;;;;;;8.15;6.28;;;23.80;54.20;;;;;;5073808;28;20012;-80
2023/09/29 10:15:29;;;;;;;9.00;5.47;;;23.80;54.10;;;;;;5085832;28;20020;-86
2023/09/29 10:17:56;;;;;;;7.35;5.43;;;24.00;54.60;;;;;;5075002;28;20041;-85
2023/09/29 10:20:24;;;;;;;9.57;5.75;;;24.00;55.10;;;;;;5076058;28;20012;-85
2023/09/29 10:22:54;;;;;;;11.10;6.18;;;24.00;54.60;;;;;;5075196;28;20019;-80
2023/09/29 10:25:21;;;;;;;9.55;6.18;;;24.00;53.50;;;;;;5075356;28;20017;-81
2023/09/29 10:27:50;;;;;;;9.77;6.13;;;24.00;53.40;;;;;;5075088;28;20039;-80
2023/09/29 10:30:16;;;;;;;9.32;5.47;;;24.00;53.30;;;;;;5083494;28;20032;-80
2023/09/29 10:32:48;;;;;;;8.52;5.95;;;24.00;53.40;;;;;;5075623;28;20100;-85
2023/09/29 10:35:18;;;;;;;;;;;24.00;53.70;;;;;;5074478;28;20029;-80
2023/09/29 10:37:54;;;;;;;8.68;5.03;;;24.00;53.60;;;;;;5075962;28;19910;-85
2023/09/29 10:40:34;;;;;;;6.22;5.43;;;24.10;53.90;;;;;;5076531;28;20052;-85
2023/09/29 10:43:03;;;;;;;6.82;5.35;;;24.10;53.60;;;;;;5063844;28;20021;-85
2023/09/29 10:45:36;;;;;;;8.35;5.65;;;24.10;51.70;;;;;;5075400;28;20043;-84
2023/09/29 10:48:09;;;;;;;10.55;6.30;;;24.10;52.30;;;;;;5074380;28;20501;-85
2023/09/29 10:50:43;;;;;;;8.32;5.70;;;24.10;52.50;;;;;;5084618;28;20351;-85
2023/09/29 10:53:09;;;;;;;10.02;5.93;;;24.10;53.10;;;;;;5073856;28;20140;-80
2023/09/29 10:55:43;;;;;;;8.10;5.95;;;24.10;52.30;;;;;;5076084;28;20091;-85
2023/09/29 10:58:11;;;;;;;7.53;6.10;;;24.20;53.00;;;;;;5075196;28;20127;-84
2023/09/29 11:00:47;;;;;;;9.35;5.85;;;24.10;52.50;;;;;;5075474;28;20482;-80
2023/09/29 11:03:14;;;;;;;10.38;6.43;;;24.20;53.80;;;;;;5088119;28;20039;-84
2023/09/29 11:05:54;;;;;;;8.00;5.35;;;24.30;53.70;;;;;;5093734;28;20358;-85
2023/09/29 11:08:34;;;;;;;7.45;5.25;;;24.30;52.60;;;;;;5093546;28;20027;-79
2023/09/29 11:11:00;;;;;;;9.45;5.70;;;24.30;51.10;;;;;;5094003;28;20027;-80
2023/09/29 11:13:27;;;;;;;7.25;5.20;;;24.30;51.80;;;;;;5091966;28;20077;-82
2023/09/29 11:15:54;;;;;;;11.27;5.80;;;24.20;51.40;;;;;;5093451;28;20431;-80
2023/09/29 11:18:31;;;;;;;8.95;5.70;;;24.30;52.10;;;;;;5091315;28;20081;-84
2023/09/29 11:20:59;;;;;;;9.60;6.10;;;24.20;51.50;;;;;;5079856;28;20028;-84
2023/09/29 11:23:25;;;;;;;8.02;5.57;;;24.30;52.30;;;;;;5093307;28;20055;-80
2023/09/29 11:25:58;;;;;;;8.20;5.75;;;24.30;52.20;;;;;;5093278;28;20035;-80
2023/09/29 11:28:26;;;;;;;8.63;5.82;;;24.10;51.50;;;;;;5093597;28;20016;-85
2023/09/29 11:30:54;;;;;;;9.40;6.20;;;24.10;51.30;;;;;;5089577;28;20028;-83
2023/09/29 11:33:20;;;;;;;9.07;5.78;;;24.20;52.40;;;;;;5091953;28;20111;-84
2023/09/29 11:35:46;;;;;;;8.48;6.25;;;24.20;52.60;;;;;;5092381;28;20024;-84
2023/09/29 11:38:19;;;;;;;8.48;5.93;;;24.20;52.40;;;;;;5092800;28;20065;-84
2023/09/29 11:40:49;;;;;;;7.68;6.50;;;24.20;52.60;;;;;;5087490;28;20485;-84
2023/09/29 11:43:15;;;;;;;11.55;6.05;;;24.30;53.80;;;;;;5084008;28;20035;-80
2023/09/29 11:45:41;;;;;;;8.93;5.28;;;24.30;54.00;;;;;;5079870;28;20020;-81
2023/09/29 11:48:07;;;;;;;12.43;6.88;;;24.10;52.80;;;;;;5081996;28;20024;-84
2023/09/29 11:50:33;;;;;;;12.85;7.07;;;24.10;53.30;;;;;;5090694;28;20024;-81
2023/09/29 11:53:03;;;;;;;10.68;6.50;;;24.10;53.80;;;;;;5080286;28;20443;-80
2023/09/29 11:55:30;;;;;;;7.25;6.55;;;24.20;54.70;;;;;;5090988;28;20024;-80
2023/09/29 11:57:55;;;;;;;7.55;6.32;;;24.20;53.90;;;;;;5092495;28;20024;-85
2023/09/29 12:00:21;;;;;;;11.82;6.70;;;24.10;54.70;;;;;;5087441;28;20021;-81
2023/09/29 12:02:47;;;;;;;11.85;6.38;;;24.00;55.50;;;;;;5086974;28;20027;-81
2023/09/29 12:05:12;;;;;;;12.82;6.57;;;24.10;55.10;;;;;;5074858;28;20029;-80
2023/09/29 12:07:38;;;;;;;10.15;6.22;;;24.30;55.50;;;;;;5072728;28;20096;-84
2023/09/29 12:10:05;;;;;;;9.32;6.57;;;24.20;54.50;;;;;;5075818;28;20030;-85
2023/09/29 12:12:32;;;;;;;7.70;6.03;;;24.10;54.20;;;;;;5082445;28;20109;-83
2023/09/29 12:14:58;;;;;;;12.02;6.35;;;24.10;55.50;;;;;;5085699;28;20028;-85
2023/09/29 12:17:24;;;;;;;7.13;5.88;;;24.20;54.80;;;;;;5072873;28;20048;-80
2023/09/29 12:19:49;;;;;;;7.63;6.20;;;24.30;54.90;;;;;;5072650;28;20098;-80
2023/09/29 12:22:15;;;;;;;12.38;6.53;;;24.30;53.60;;;;;;5073201;28;20017;-80
2023/09/29 12:24:41;;;;;;;11.77;5.72;;;24.30;52.50;;;;;;5074043;28;20102;-80
2023/09/29 12:27:09;;;;;;;8.60;5.75;;;24.40;52.80;;;;;;5071712;28;20077;-84
2023/09/29 12:29:36;;;;;;;10.10;5.65;;;24.40;52.50;;;;;;5073668;28;20036;-83
2023/09/29 12:32:02;;;;;;;9.13;5.60;;;24.40;52.20;;;;;;5081576;28;20110;-84
2023/09/29 12:34:32;;;;;;;7.97;6.43;;;24.50;52.30;;;;;;5076488;28;20433;-84
2023/09/29 12:37:01;;;;;;;8.75;5.60;;;24.40;51.90;;;;;;5084304;28;20093;-84